• Join FlightAware (Why Join?)
  • Login
  • US Flag 
06:36AM EDT


 

Airport Tracker/Info


-or-


 

Live Flight TrackerFlight Track Log ✈ N3223B ✈ 28-Jan-2014 ✈ KBED - KALB

Flight Track Log - Related Links

Times and Time Zones

All times are in EST time to prevent confusion due to time zone crossing. See the N3223B flight status page for this flight to view local times or setup timezone preferences in your user account.

Time Position Orientation Groundspeed Altitude Reporting Facility
EST Latitude Longitude Course Direction KTS MPH feet Rate Location/Type
04:17PM 42.4833 -71.3500 289° West 108 124 1,500  Level KA90
04:18PM 42.4833 -71.3833 270° West 115 132 2,000 540 Climbing KA90
04:19PM 42.4833 -71.4333 270° West 107 123 2,600 720 Climbing KA90
04:20PM 42.5000 -71.4667 304° West 123 142 3,400 720 Climbing KA90
04:22PM 42.4954 -71.5317 289° West  Level FlightAware Approximate
04:22PM 42.5197 -71.5811 283° West 144 166 5,000  Level Boston Center
04:23PM 42.5308 -71.6319 287° West 144 166 5,700 660 Climbing Boston Center
04:24PM 42.5381 -71.6861 280° West 144 166 6,400 360 Climbing Boston Center
04:25PM 42.5458 -71.7411 281° West 149 171 6,500  Climbing Boston Center
04:26PM 42.5525 -71.8033 278° West 154 177 6,500  Level Boston Center
04:27PM 42.5594 -71.8581 280° West 153 176 6,500  Level Boston Center
04:28PM 42.5650 -71.9131 278° West 148 170 6,500  Level Boston Center
04:29PM 42.5711 -71.9675 279° West 148 170 6,500  Level Boston Center
04:30PM 42.5783 -72.0256 280° West 146 168 6,500  Level Boston Center
04:31PM 42.5847 -72.0800 279° West 147 169 6,500  Level Boston Center
04:32PM 42.5903 -72.1356 278° West 147 169 6,500  Level Boston Center
04:33PM 42.5953 -72.1903 277° West 147 169 6,600  Climbing Boston Center
04:34PM 42.6000 -72.2486 276° West 147 169 6,500  Descending Boston Center
04:35PM 42.6028 -72.2936 275° West 147 169 6,600  Climbing Boston Center
04:36PM 42.6097 -72.3592 278° West 147 169 6,600  Level Boston Center
04:37PM 42.6156 -72.4147 278° West 147 169 6,600  Level Boston Center
04:38PM 42.6208 -72.4708 277° West 147 169 6,600  Level Boston Center
04:39PM 42.6256 -72.5267 277° West 147 169 6,600 -60 Level Boston Center
04:40PM 42.6308 -72.5811 278° West 147 169 6,500  Descending Boston Center
04:41PM 42.6353 -72.6367 276° West 147 169 6,600  Climbing Boston Center
04:42PM 42.6400 -72.6925 277° West 147 169 6,600  Level Boston Center
04:43PM 42.6444 -72.7492 276° West 148 170 6,600  Level Boston Center
04:44PM 42.6489 -72.8053 276° West 148 170 6,600  Level Boston Center
04:44PM 42.6511 -72.8308 277° West 150 173 6,600  Level Boston Center
04:45PM 42.6517 -72.8397 275° West 150 173 6,600  Level Boston Center
04:45PM 42.6558 -72.8714 280° West 148 170 6,600  Level Boston Center
04:46PM 42.6567 -72.8967 273° West 149 171 6,600 -120 Level Boston Center
04:46PM 42.6606 -72.9267 280° West 148 170 6,500 -120 Descending Boston Center
04:47PM 42.6617 -72.9533 273° West 149 171 6,500  Level Boston Center
04:47PM 42.6658 -72.9822 281° West 148 170 6,500  Level Boston Center
04:48PM 42.6661 -73.0128 271° West 149 171 6,500  Level Boston Center
04:48PM 42.6717 -73.0422 284° West 148 170 6,500  Level Boston Center
04:49PM 42.6742 -73.0647 279° West 146 168 6,500  Level Boston Center
04:49PM 42.6811 -73.0953 287° West 147 169 6,500  Level Boston Center
04:50PM 42.6836 -73.1203 278° West 143 165 6,500  Level Boston Center
04:50PM 42.6861 -73.1486 277° West 146 168 6,500  Level Boston Center
04:51PM 42.6850 -73.1728 266° West 144 166 6,500  Level Boston Center
04:51PM 42.6889 -73.2031 280° West 145 167 6,500  Level Boston Center
04:52PM 42.6903 -73.2269 275° West 144 166 6,500  Level Boston Center
04:52PM 42.6947 -73.2572 281° West 145 167 6,500  Level Boston Center
04:53PM 42.7022 -73.2803 294° West 148 170 6,500  Level Boston Center
04:53PM 42.7189 -73.3067 311° West 146 168 6,500  Level Boston Center
04:54PM 42.7292 -73.3211 314° West 150 173 6,500  Level Boston Center
04:54PM 42.7506 -73.3447 321° Northwest 150 173 6,500  Level Boston Center
04:55PM 42.7561 -73.3622 293° West 151 174 6,500  Level Boston Center
04:55PM 42.7583 -73.3964 275° West 147 169 6,500 -120 Level Boston Center
04:56PM 42.7575 -73.4267 268° West 147 169 6,400 -600 Descending Boston Center
04:56PM 42.7575 -73.4528 270° West 148 170 5,900 -1,140 Descending Boston Center
04:57PM 42.7556 -73.4842 265° West 160 184 5,300 -1,140 Descending Boston Center
04:57PM 42.7567 -73.5128 273° West 156 180 4,800 -1,140 Descending Boston Center
04:58PM 42.7564 -73.5397 269° West 156 180 4,300 -1,020 Descending Boston Center
04:58PM 42.7550 -73.5733 267° West 152 175 3,800 -900 Descending Boston Center
04:59PM 42.7531 -73.5939 263° West 147 169 3,400 -600 Descending Boston Center
04:59PM 42.7539 -73.6311 272° West 150 173 3,200 -540 Descending Boston Center
05:00PM 42.7536 -73.6494 269° West 148 170 2,900 -1,020 Descending Boston Center
05:00PM 42.7550 -73.6847 273° West 149 171 2,200 -1,140 Descending Boston Center
05:01PM 42.7522 -73.7044 259° West 147 169 1,800 -840 Descending Boston Center
05:01PM 42.7511 -73.7392 268° West 148 170 1,400 -720 Descending Boston Center
05:02PM 42.7497 -73.7531 262° West 123 142 1,100 -840 Descending Boston Center
05:03PM 42.7500 -73.7747 271° West 100 115 600 -840 Descending Boston Center
05:03PM 42.7503 -73.7853 272° West 81 93 300 -900 Descending Boston Center
05:05PM 42.7491 -73.8020 270° West  Level Estimated
05:12PM 42.7491 -73.8020 270° West  Level Estimated